sensor_id;sensor_type;location;lat;lon;timestamp;temperature;humidity
52397;DHT22;38322;53.108;6.308;2022-09-24T05:01:56;13.20;99.90
52397;DHT22;38322;53.108;6.308;2022-09-24T05:04:22;13.20;99.90
52397;DHT22;38322;53.108;6.308;2022-09-24T05:06:48;13.20;99.90
52397;DHT22;38322;53.108;6.308;2022-09-24T05:09:14;13.20;99.90
52397;DHT22;38322;53.108;6.308;2022-09-24T05:11:39;13.30;99.90
52397;DHT22;38322;53.108;6.308;2022-09-24T05:14:05;13.20;99.90
52397;DHT22;38322;53.108;6.308;2022-09-24T05:16:31;13.20;99.90
52397;DHT22;38322;53.108;6.308;2022-09-24T05:18:57;13.20;99.90
52397;DHT22;38322;53.108;6.308;2022-09-24T05:21:23;13.20;99.90
52397;DHT22;38322;53.108;6.308;2022-09-24T05:23:49;13.20;99.90
52397;DHT22;38322;53.108;6.308;2022-09-24T05:26:14;13.20;99.90
52397;DHT22;38322;53.108;6.308;2022-09-24T05:28:59;13.20;99.90
52397;DHT22;38322;53.108;6.308;2022-09-24T05:31:25;13.10;99.90
52397;DHT22;38322;53.108;6.308;2022-09-24T05:33:50;13.20;99.90
52397;DHT22;38322;53.108;6.308;2022-09-24T05:36:17;13.20;99.90
52397;DHT22;38322;53.108;6.308;2022-09-24T05:38:43;13.20;99.90
52397;DHT22;38322;53.108;6.308;2022-09-24T05:41:09;13.20;99.90
52397;DHT22;38322;53.108;6.308;2022-09-24T05:43:35;13.20;99.90
52397;DHT22;38322;53.108;6.308;2022-09-24T05:46:02;13.20;99.90
52397;DHT22;38322;53.108;6.308;2022-09-24T05:48:28;13.20;99.90
52397;DHT22;38322;53.108;6.308;2022-09-24T05:50:54;13.20;99.90
52397;DHT22;38322;53.108;6.308;2022-09-24T05:53:20;13.20;99.90
52397;DHT22;38322;53.108;6.308;2022-09-24T05:55:48;13.20;99.90
52397;DHT22;38322;53.108;6.308;2022-09-24T05:58:14;13.20;99.90
52397;DHT22;38322;53.108;6.308;2022-09-24T06:00:40;13.20;99.90
52397;DHT22;38322;53.108;6.308;2022-09-24T06:03:11;13.20;99.90
52397;DHT22;38322;53.108;6.308;2022-09-24T06:05:38;13.20;99.90
52397;DHT22;38322;53.108;6.308;2022-09-24T06:08:04;13.10;99.90
52397;DHT22;38322;53.108;6.308;2022-09-24T06:10:31;13.10;99.90
52397;DHT22;38322;53.108;6.308;2022-09-24T06:12:57;13.10;99.90
52397;DHT22;38322;53.108;6.308;2022-09-24T06:15:23;13.10;99.90
52397;DHT22;38322;53.108;6.308;2022-09-24T06:17:52;13.10;99.90
52397;DHT22;38322;53.108;6.308;2022-09-24T06:20:19;13.10;99.90
52397;DHT22;38322;53.108;6.308;2022-09-24T06:22:46;13.10;99.90
52397;DHT22;38322;53.108;6.308;2022-09-24T06:25:12;13.10;99.90
52397;DHT22;38322;53.108;6.308;2022-09-24T06:27:38;13.10;99.90
52397;DHT22;38322;53.108;6.308;2022-09-24T06:30:04;13.10;99.90
52397;DHT22;38322;53.108;6.308;2022-09-24T06:32:30;13.10;99.90
52397;DHT22;38322;53.108;6.308;2022-09-24T06:34:56;13.20;99.90
52397;DHT22;38322;53.108;6.308;2022-09-24T06:37:22;13.20;99.90
52397;DHT22;38322;53.108;6.308;2022-09-24T06:39:48;13.20;99.90
52397;DHT22;38322;53.108;6.308;2022-09-24T06:42:13;13.20;99.90
52397;DHT22;38322;53.108;6.308;2022-09-24T06:44:39;13.20;99.90
52397;DHT22;38322;53.108;6.308;2022-09-24T06:47:06;13.20;99.90
52397;DHT22;38322;53.108;6.308;2022-09-24T06:49:32;13.30;99.90
52397;DHT22;38322;53.108;6.308;2022-09-24T06:51:59;13.30;99.90
52397;DHT22;38322;53.108;6.308;2022-09-24T06:54:24;13.30;99.90
52397;DHT22;38322;53.108;6.308;2022-09-24T06:56:51;13.30;99.90
52397;DHT22;38322;53.108;6.308;2022-09-24T06:59:17;13.30;99.90
52397;DHT22;38322;53.108;6.308;2022-09-24T07:01:43;13.40;99.90
52397;DHT22;38322;53.108;6.308;2022-09-24T07:04:10;13.40;99.90
52397;DHT22;38322;53.108;6.308;2022-09-24T07:06:36;13.40;99.90
52397;DHT22;38322;53.108;6.308;2022-09-24T07:09:21;13.40;99.90
52397;DHT22;38322;53.108;6.308;2022-09-24T07:11:47;13.50;99.90
52397;DHT22;38322;53.108;6.308;2022-09-24T07:14:13;13.60;99.90
52397;DHT22;38322;53.108;6.308;2022-09-24T07:16:39;13.60;99.90
52397;DHT22;38322;53.108;6.308;2022-09-24T07:19:04;13.70;99.90
52397;DHT22;38322;53.108;6.308;2022-09-24T07:21:30;13.70;99.90
52397;DHT22;38322;53.108;6.308;2022-09-24T07:23:56;13.70;99.90
52397;DHT22;38322;53.108;6.308;2022-09-24T07:26:22;13.80;99.90
52397;DHT22;38322;53.108;6.308;2022-09-24T07:28:48;13.90;99.90
52397;DHT22;38322;53.108;6.308;2022-09-24T07:31:14;13.90;99.90
52397;DHT22;38322;53.108;6.308;2022-09-24T07:33:42;14.00;99.90
52397;DHT22;38322;53.108;6.308;2022-09-24T07:36:07;14.10;99.90
52397;DHT22;38322;53.108;6.308;2022-09-24T07:38:34;14.20;99.90
52397;DHT22;38322;53.108;6.308;2022-09-24T07:41:01;14.40;99.90
52397;DHT22;38322;53.108;6.308;2022-09-24T07:43:30;14.50;99.90
52397;DHT22;38322;53.108;6.308;2022-09-24T07:45:57;14.60;99.90
52397;DHT22;38322;53.108;6.308;2022-09-24T07:48:23;14.60;99.90
52397;DHT22;38322;53.108;6.308;2022-09-24T07:50:49;14.60;99.90
52397;DHT22;38322;53.108;6.308;2022-09-24T07:53:16;14.50;99.90
52397;DHT22;38322;53.108;6.308;2022-09-24T07:55:42;14.50;99.90
52397;DHT22;38322;53.108;6.308;2022-09-24T07:58:11;14.50;99.90
52397;DHT22;38322;53.108;6.308;2022-09-24T08:00:38;14.50;99.90
52397;DHT22;38322;53.108;6.308;2022-09-24T08:03:05;14.50;99.90
52397;DHT22;38322;53.108;6.308;2022-09-24T08:05:32;14.50;99.90
52397;DHT22;38322;53.108;6.308;2022-09-24T08:07:58;14.50;99.90
52397;DHT22;38322;53.108;6.308;2022-09-24T08:10:25;14.50;99.90
52397;DHT22;38322;53.108;6.308;2022-09-24T08:12:52;14.50;99.90
52397;DHT22;38322;53.108;6.308;2022-09-24T08:15:19;14.60;99.90
52397;DHT22;38322;53.108;6.308;2022-09-24T08:17:47;14.50;99.90
52397;DHT22;38322;53.108;6.308;2022-09-24T08:20:13;14.50;99.90
52397;DHT22;38322;53.108;6.308;2022-09-24T08:22:39;14.50;99.90
52397;DHT22;38322;53.108;6.308;2022-09-24T08:25:05;14.50;99.90
52397;DHT22;38322;53.108;6.308;2022-09-24T08:27:31;14.50;99.90
52397;DHT22;38322;53.108;6.308;2022-09-24T08:29:59;14.50;99.90
52397;DHT22;38322;53.108;6.308;2022-09-24T08:32:25;14.50;99.90
52397;DHT22;38322;53.108;6.308;2022-09-24T08:34:51;14.50;99.90
52397;DHT22;38322;53.108;6.308;2022-09-24T08:37:17;14.40;99.90
52397;DHT22;38322;53.108;6.308;2022-09-24T08:39:43;14.40;99.90
52397;DHT22;38322;53.108;6.308;2022-09-24T08:42:23;14.40;99.90
52397;DHT22;38322;53.108;6.308;2022-09-24T08:44:55;14.40;99.90
52397;DHT22;38322;53.108;6.308;2022-09-24T08:47:48;14.30;99.90
52397;DHT22;38322;53.108;6.308;2022-09-24T08:52:52;14.30;99.90
52397;DHT22;38322;53.108;6.308;2022-09-24T08:55:34;14.30;99.90
52397;DHT22;38322;53.108;6.308;2022-09-24T09:00:54;14.30;99.90
52397;DHT22;38322;53.108;6.308;2022-09-24T09:03:40;14.30;99.90
52397;DHT22;38322;53.108;6.308;2022-09-24T09:08:52;14.40;99.90
52397;DHT22;38322;53.108;6.308;2022-09-24T09:11:23;14.50;99.90
52397;DHT22;38322;53.108;6.308;2022-09-24T09:13:57;14.40;99.90
52397;DHT22;38322;53.108;6.308;2022-09-24T09:16:28;14.40;99.90
52397;DHT22;38322;53.108;6.308;2022-09-24T09:19:02;14.50;99.90
52397;DHT22;38322;53.108;6.308;2022-09-24T09:21:38;14.50;99.90
52397;DHT22;38322;53.108;6.308;2022-09-24T09:24:15;14.50;99.90
52397;DHT22;38322;53.108;6.308;2022-09-24T09:26:46;14.50;99.90
52397;DHT22;38322;53.108;6.308;2022-09-24T09:29:13;14.50;99.90
52397;DHT22;38322;53.108;6.308;2022-09-24T09:31:44;14.50;99.90
52397;DHT22;38322;53.108;6.308;2022-09-24T09:34:27;14.50;99.90
52397;DHT22;38322;53.108;6.308;2022-09-24T09:39:44;14.50;99.90
52397;DHT22;38322;53.108;6.308;2022-09-24T09:42:18;14.50;99.90
52397;DHT22;38322;53.108;6.308;2022-09-24T09:44:47;14.40;99.90
52397;DHT22;38322;53.108;6.308;2022-09-24T09:47:31;14.40;99.90
52397;DHT22;38322;53.108;6.308;2022-09-24T09:50:27;14.40;99.90
52397;DHT22;38322;53.108;6.308;2022-09-24T09:52:53;14.30;99.90
52397;DHT22;38322;53.108;6.308;2022-09-24T09:55:25;14.30;99.90
52397;DHT22;38322;53.108;6.308;2022-09-24T09:57:51;14.30;99.90
52397;DHT22;38322;53.108;6.308;2022-09-24T10:00:26;14.40;99.90
52397;DHT22;38322;53.108;6.308;2022-09-24T10:02:52;14.40;99.90
52397;DHT22;38322;53.108;6.308;2022-09-24T10:05:21;14.50;99.90
52397;DHT22;38322;53.108;6.308;2022-09-24T10:07:50;14.60;99.90
52397;DHT22;38322;53.108;6.308;2022-09-24T10:10:18;14.60;99.90
52397;DHT22;38322;53.108;6.308;2022-09-24T10:12:45;14.80;99.90
52397;DHT22;38322;53.108;6.308;2022-09-24T10:17:39;14.70;99.90
52397;DHT22;38322;53.108;6.308;2022-09-24T10:20:16;14.60;99.90
52397;DHT22;38322;53.108;6.308;2022-09-24T10:22:48;14.50;99.90
52397;DHT22;38322;53.108;6.308;2022-09-24T10:25:19;14.40;99.90
52397;DHT22;38322;53.108;6.308;2022-09-24T10:27:50;14.30;99.90
52397;DHT22;38322;53.108;6.308;2022-09-24T10:30:17;14.30;99.90
52397;DHT22;38322;53.108;6.308;2022-09-24T10:33:00;14.20;99.90
52397;DHT22;38322;53.108;6.308;2022-09-24T10:35:30;14.20;99.90
52397;DHT22;38322;53.108;6.308;2022-09-24T10:37:59;14.10;99.90
52397;DHT22;38322;53.108;6.308;2022-09-24T10:40:28;14.00;99.90
52397;DHT22;38322;53.108;6.308;2022-09-24T10:42:57;14.00;99.90
52397;DHT22;38322;53.108;6.308;2022-09-24T10:45:32;14.00;99.90
52397;DHT22;38322;53.108;6.308;2022-09-24T10:51:01;14.00;99.90
52397;DHT22;38322;53.108;6.308;2022-09-24T10:56:08;14.10;99.90
52397;DHT22;38322;53.108;6.308;2022-09-24T10:58:54;14.10;99.90
52397;DHT22;38322;53.108;6.308;2022-09-24T11:01:30;14.10;99.90
52397;DHT22;38322;53.108;6.308;2022-09-24T11:04:45;14.10;99.90
52397;DHT22;38322;53.108;6.308;2022-09-24T11:10:00;14.00;99.90
52397;DHT22;38322;53.108;6.308;2022-09-24T11:12:38;14.00;99.90
52397;DHT22;38322;53.108;6.308;2022-09-24T11:15:15;13.90;99.90
52397;DHT22;38322;53.108;6.308;2022-09-24T11:20:34;13.90;99.90
52397;DHT22;38322;53.108;6.308;2022-09-24T11:23:10;13.80;99.90
52397;DHT22;38322;53.108;6.308;2022-09-24T11:26:01;13.80;99.90
52397;DHT22;38322;53.108;6.308;2022-09-24T11:39:31;13.80;99.90
52397;DHT22;38322;53.108;6.308;2022-09-24T11:47:20;13.70;99.90
52397;DHT22;38322;53.108;6.308;2022-09-24T11:52:44;13.70;99.90
52397;DHT22;38322;53.108;6.308;2022-09-24T11:55:17;13.70;99.90
52397;DHT22;38322;53.108;6.308;2022-09-24T12:00:39;13.80;99.90
52397;DHT22;38322;53.108;6.308;2022-09-24T12:03:15;13.80;99.90
52397;DHT22;38322;53.108;6.308;2022-09-24T12:05:47;13.80;99.90
52397;DHT22;38322;53.108;6.308;2022-09-24T12:08:35;13.80;99.90
52397;DHT22;38322;53.108;6.308;2022-09-24T12:11:17;13.80;99.90
52397;DHT22;38322;53.108;6.308;2022-09-24T12:13:48;13.90;99.90
52397;DHT22;38322;53.108;6.308;2022-09-24T12:16:19;13.80;99.90
52397;DHT22;38322;53.108;6.308;2022-09-24T12:21:39;13.80;99.90
52397;DHT22;38322;53.108;6.308;2022-09-24T12:24:12;13.90;99.90
52397;DHT22;38322;53.108;6.308;2022-09-24T12:26:42;13.90;99.90
52397;DHT22;38322;53.108;6.308;2022-09-24T12:29:29;13.90;99.90
52397;DHT22;38322;53.108;6.308;2022-09-24T12:32:18;13.90;99.90
52397;DHT22;38322;53.108;6.308;2022-09-24T12:35:24;13.90;99.90
52397;DHT22;38322;53.108;6.308;2022-09-24T12:37:57;13.90;99.90
52397;DHT22;38322;53.108;6.308;2022-09-24T12:43:20;13.90;99.90
52397;DHT22;38322;53.108;6.308;2022-09-24T12:45:55;13.90;99.90
52397;DHT22;38322;53.108;6.308;2022-09-24T12:48:25;13.90;99.90
52397;DHT22;38322;53.108;6.308;2022-09-24T12:50:58;14.00;99.90
52397;DHT22;38322;53.108;6.308;2022-09-24T12:53:33;14.00;99.90
52397;DHT22;38322;53.108;6.308;2022-09-24T12:56:00;14.00;99.90
52397;DHT22;38322;53.108;6.308;2022-09-24T12:58:37;14.00;99.90
52397;DHT22;38322;53.108;6.308;2022-09-24T13:06:41;14.00;99.90
52397;DHT22;38322;53.108;6.308;2022-09-24T13:12:04;13.90;99.90
52397;DHT22;38322;53.108;6.308;2022-09-24T13:14:32;13.80;99.90
52397;DHT22;38322;53.108;6.308;2022-09-24T13:17:04;13.70;99.90
52397;DHT22;38322;53.108;6.308;2022-09-24T13:19:38;13.70;99.90
52397;DHT22;38322;53.108;6.308;2022-09-24T13:22:16;13.70;99.90
52397;DHT22;38322;53.108;6.308;2022-09-24T13:24:48;13.70;99.90
52397;DHT22;38322;53.108;6.308;2022-09-24T13:27:21;13.60;99.90
52397;DHT22;38322;53.108;6.308;2022-09-24T13:30:02;13.60;99.90
52397;DHT22;38322;53.108;6.308;2022-09-24T13:32:33;13.60;99.90
52397;DHT22;38322;53.108;6.308;2022-09-24T13:35:06;13.70;99.90
52397;DHT22;38322;53.108;6.308;2022-09-24T13:37:38;13.70;99.90
52397;DHT22;38322;53.108;6.308;2022-09-24T13:40:15;13.70;99.90
52397;DHT22;38322;53.108;6.308;2022-09-24T13:42:45;13.70;99.90
52397;DHT22;38322;53.108;6.308;2022-09-24T13:45:17;13.70;99.90
52397;DHT22;38322;53.108;6.308;2022-09-24T13:47:55;13.70;99.90
52397;DHT22;38322;53.108;6.308;2022-09-24T13:50:38;13.60;99.90
52397;DHT22;38322;53.108;6.308;2022-09-24T13:53:16;13.50;99.90
52397;DHT22;38322;53.108;6.308;2022-09-24T13:55:46;13.40;99.90
52397;DHT22;38322;53.108;6.308;2022-09-24T13:58:33;13.30;99.90
52397;DHT22;38322;53.108;6.308;2022-09-24T14:01:02;13.30;99.90
52397;DHT22;38322;53.108;6.308;2022-09-24T14:03:31;13.20;99.90
52397;DHT22;38322;53.108;6.308;2022-09-24T14:05:59;13.20;99.90
52397;DHT22;38322;53.108;6.308;2022-09-24T14:08:26;13.00;99.90
52397;DHT22;38322;53.108;6.308;2022-09-24T14:11:06;13.00;99.90
52397;DHT22;38322;53.108;6.308;2022-09-24T14:13:37;12.90;99.90
52397;DHT22;38322;53.108;6.308;2022-09-24T14:16:15;12.90;99.90
52397;DHT22;38322;53.108;6.308;2022-09-24T14:18:42;12.80;99.90
52397;DHT22;38322;53.108;6.308;2022-09-24T14:21:25;12.80;99.90
52397;DHT22;38322;53.108;6.308;2022-09-24T14:23:58;12.90;99.90
52397;DHT22;38322;53.108;6.308;2022-09-24T14:29:07;13.00;99.90
52397;DHT22;38322;53.108;6.308;2022-09-24T14:31:48;13.10;99.90
52397;DHT22;38322;53.108;6.308;2022-09-24T14:34:26;13.10;99.90
52397;DHT22;38322;53.108;6.308;2022-09-24T14:36:55;13.20;99.90
52397;DHT22;38322;53.108;6.308;2022-09-24T14:39:24;13.30;99.90
52397;DHT22;38322;53.108;6.308;2022-09-24T14:41:53;13.30;99.90
52397;DHT22;38322;53.108;6.308;2022-09-24T14:44:22;13.40;99.90
52397;DHT22;38322;53.108;6.308;2022-09-24T14:46:51;13.50;99.90
52397;DHT22;38322;53.108;6.308;2022-09-24T14:49:20;13.50;99.90
52397;DHT22;38322;53.108;6.308;2022-09-24T14:51:52;13.60;99.90
52397;DHT22;38322;53.108;6.308;2022-09-24T14:54:33;13.60;99.90
52397;DHT22;38322;53.108;6.308;2022-09-24T14:57:22;13.70;99.90
52397;DHT22;38322;53.108;6.308;2022-09-24T14:59:49;13.70;99.90
52397;DHT22;38322;53.108;6.308;2022-09-24T15:04:47;13.90;99.90
52397;DHT22;38322;53.108;6.308;2022-09-24T15:07:18;13.90;99.90
52397;DHT22;38322;53.108;6.308;2022-09-24T15:09:50;13.90;99.90
52397;DHT22;38322;53.108;6.308;2022-09-24T15:12:20;14.00;99.90
52397;DHT22;38322;53.108;6.308;2022-09-24T15:14:55;14.00;99.90
52397;DHT22;38322;53.108;6.308;2022-09-24T15:17:23;14.10;99.90
52397;DHT22;38322;53.108;6.308;2022-09-24T15:19:51;14.10;99.90
52397;DHT22;38322;53.108;6.308;2022-09-24T15:22:19;14.20;99.90
52397;DHT22;38322;53.108;6.308;2022-09-24T15:24:48;14.30;99.90
52397;DHT22;38322;53.108;6.308;2022-09-24T15:27:15;14.40;99.90
52397;DHT22;38322;53.108;6.308;2022-09-24T15:29:42;14.50;99.90
52397;DHT22;38322;53.108;6.308;2022-09-24T15:32:15;14.50;99.90
52397;DHT22;38322;53.108;6.308;2022-09-24T15:34:42;14.50;99.90
52397;DHT22;38322;53.108;6.308;2022-09-24T15:37:10;14.50;99.90
52397;DHT22;38322;53.108;6.308;2022-09-24T15:39:37;14.40;99.90
52397;DHT22;38322;53.108;6.308;2022-09-24T15:42:03;14.40;99.90
52397;DHT22;38322;53.108;6.308;2022-09-24T15:44:29;14.30;99.90
52397;DHT22;38322;53.108;6.308;2022-09-24T15:46:55;14.30;99.90
52397;DHT22;38322;53.108;6.308;2022-09-24T15:49:22;14.20;99.90
52397;DHT22;38322;53.108;6.308;2022-09-24T15:51:52;14.20;99.90
52397;DHT22;38322;53.108;6.308;2022-09-24T15:54:19;14.20;99.90
52397;DHT22;38322;53.108;6.308;2022-09-24T15:56:46;14.20;99.90
52397;DHT22;38322;53.108;6.308;2022-09-24T15:59:17;14.20;99.90
52397;DHT22;38322;53.108;6.308;2022-09-24T16:01:45;14.30;99.90
52397;DHT22;38322;53.108;6.308;2022-09-24T16:04:11;14.40;99.90
52397;DHT22;38322;53.108;6.308;2022-09-24T16:06:37;14.50;99.90
52397;DHT22;38322;53.108;6.308;2022-09-24T16:09:03;14.50;99.90
52397;DHT22;38322;53.108;6.308;2022-09-24T16:11:30;14.50;99.90
52397;DHT22;38322;53.108;6.308;2022-09-24T16:13:56;14.50;99.90
52397;DHT22;38322;53.108;6.308;2022-09-24T16:16:22;14.60;99.90
52397;DHT22;38322;53.108;6.308;2022-09-24T16:18:49;14.50;99.90
52397;DHT22;38322;53.108;6.308;2022-09-24T16:21:15;14.50;99.90
52397;DHT22;38322;53.108;6.308;2022-09-24T16:23:41;14.50;99.90
52397;DHT22;38322;53.108;6.308;2022-09-24T16:26:07;14.40;99.90
52397;DHT22;38322;53.108;6.308;2022-09-24T16:28:33;14.40;99.90
52397;DHT22;38322;53.108;6.308;2022-09-24T16:31:04;14.40;99.90
52397;DHT22;38322;53.108;6.308;2022-09-24T16:33:36;14.30;99.90
52397;DHT22;38322;53.108;6.308;2022-09-24T16:36:05;14.20;99.90
52397;DHT22;38322;53.108;6.308;2022-09-24T16:38:35;14.20;99.90
52397;DHT22;38322;53.108;6.308;2022-09-24T16:41:01;14.10;99.90
52397;DHT22;38322;53.108;6.308;2022-09-24T16:43:27;14.10;99.90
52397;DHT22;38322;53.108;6.308;2022-09-24T16:45:58;14.00;99.90
52397;DHT22;38322;53.108;6.308;2022-09-24T16:48:25;14.00;99.90
52397;DHT22;38322;53.108;6.308;2022-09-24T16:50:50;13.90;99.90
52397;DHT22;38322;53.108;6.308;2022-09-24T16:53:16;13.80;99.90
52397;DHT22;38322;53.108;6.308;2022-09-24T16:55:42;13.80;99.90
52397;DHT22;38322;53.108;6.308;2022-09-24T16:58:08;13.70;99.90
52397;DHT22;38322;53.108;6.308;2022-09-24T17:00:34;13.60;99.90
52397;DHT22;38322;53.108;6.308;2022-09-24T17:03:00;13.50;99.90
52397;DHT22;38322;53.108;6.308;2022-09-24T17:05:26;13.40;99.90
52397;DHT22;38322;53.108;6.308;2022-09-24T17:07:52;13.30;99.90
52397;DHT22;38322;53.108;6.308;2022-09-24T17:10:18;13.30;99.90
52397;DHT22;38322;53.108;6.308;2022-09-24T17:12:48;13.20;99.90
52397;DHT22;38322;53.108;6.308;2022-09-24T17:15:18;13.10;99.90
52397;DHT22;38322;53.108;6.308;2022-09-24T17:17:46;13.00;99.90
52397;DHT22;38322;53.108;6.308;2022-09-24T17:20:12;12.90;99.90
52397;DHT22;38322;53.108;6.308;2022-09-24T17:22:38;12.80;99.90
52397;DHT22;38322;53.108;6.308;2022-09-24T17:25:05;12.80;99.90
52397;DHT22;38322;53.108;6.308;2022-09-24T17:27:32;12.70;99.90
52397;DHT22;38322;53.108;6.308;2022-09-24T17:30:01;12.70;99.90
52397;DHT22;38322;53.108;6.308;2022-09-24T17:32:27;12.60;99.90
52397;DHT22;38322;53.108;6.308;2022-09-24T17:34:53;12.60;99.90
52397;DHT22;38322;53.108;6.308;2022-09-24T17:37:19;12.50;99.90
52397;DHT22;38322;53.108;6.308;2022-09-24T17:39:45;12.50;99.90
52397;DHT22;38322;53.108;6.308;2022-09-24T17:42:11;12.40;99.90
52397;DHT22;38322;53.108;6.308;2022-09-24T17:44:37;12.40;99.90
52397;DHT22;38322;53.108;6.308;2022-09-24T17:47:03;12.30;99.90
52397;DHT22;38322;53.108;6.308;2022-09-24T17:49:29;12.30;99.90
52397;DHT22;38322;53.108;6.308;2022-09-24T17:51:56;12.20;99.90
52397;DHT22;38322;53.108;6.308;2022-09-24T17:54:26;12.20;99.90
52397;DHT22;38322;53.108;6.308;2022-09-24T17:56:52;12.10;99.90
52397;DHT22;38322;53.108;6.308;2022-09-24T17:59:18;12.10;99.90
52397;DHT22;38322;53.108;6.308;2022-09-24T18:01:44;12.00;99.90
52397;DHT22;38322;53.108;6.308;2022-09-24T18:04:13;12.00;99.90
52397;DHT22;38322;53.108;6.308;2022-09-24T18:06:40;12.00;99.90
52397;DHT22;38322;53.108;6.308;2022-09-24T18:09:08;11.90;99.90
52397;DHT22;38322;53.108;6.308;2022-09-24T18:11:43;11.90;99.90
52397;DHT22;38322;53.108;6.308;2022-09-24T18:14:13;11.90;99.90
52397;DHT22;38322;53.108;6.308;2022-09-24T18:16:39;11.80;99.90
52397;DHT22;38322;53.108;6.308;2022-09-24T18:19:05;11.80;99.90
52397;DHT22;38322;53.108;6.308;2022-09-24T18:21:31;11.80;99.90
52397;DHT22;38322;53.108;6.308;2022-09-24T18:23:59;11.80;99.90
52397;DHT22;38322;53.108;6.308;2022-09-24T18:26:28;11.70;99.90
52397;DHT22;38322;53.108;6.308;2022-09-24T18:28:58;11.70;99.90
52397;DHT22;38322;53.108;6.308;2022-09-24T18:31:26;11.70;99.90
52397;DHT22;38322;53.108;6.308;2022-09-24T18:33:54;11.70;99.90
52397;DHT22;38322;53.108;6.308;2022-09-24T18:36:22;11.70;99.90
52397;DHT22;38322;53.108;6.308;2022-09-24T18:38:50;11.70;99.90
52397;DHT22;38322;53.108;6.308;2022-09-24T18:41:24;11.60;99.90
52397;DHT22;38322;53.108;6.308;2022-09-24T18:43:51;11.60;99.90
52397;DHT22;38322;53.108;6.308;2022-09-24T18:46:19;11.60;99.90
52397;DHT22;38322;53.108;6.308;2022-09-24T18:48:49;11.60;99.90
52397;DHT22;38322;53.108;6.308;2022-09-24T18:51:19;11.50;99.90
52397;DHT22;38322;53.108;6.308;2022-09-24T18:53:53;11.40;99.90
52397;DHT22;38322;53.108;6.308;2022-09-24T18:56:20;11.40;99.90
52397;DHT22;38322;53.108;6.308;2022-09-24T18:58:46;11.30;99.90
52397;DHT22;38322;53.108;6.308;2022-09-24T19:01:13;11.20;99.90
52397;DHT22;38322;53.108;6.308;2022-09-24T19:03:40;11.30;99.90
52397;DHT22;38322;53.108;6.308;2022-09-24T19:06:08;11.20;99.90
52397;DHT22;38322;53.108;6.308;2022-09-24T19:08:35;11.30;99.90
52397;DHT22;38322;53.108;6.308;2022-09-24T19:11:03;11.20;99.90
52397;DHT22;38322;53.108;6.308;2022-09-24T19:13:32;11.20;99.90
52397;DHT22;38322;53.108;6.308;2022-09-24T19:16:03;11.10;99.90
52397;DHT22;38322;53.108;6.308;2022-09-24T19:18:29;11.10;99.90
52397;DHT22;38322;53.108;6.308;2022-09-24T19:20:56;11.00;99.90
52397;DHT22;38322;53.108;6.308;2022-09-24T19:23:22;11.00;99.90
52397;DHT22;38322;53.108;6.308;2022-09-24T19:25:48;11.00;99.90
52397;DHT22;38322;53.108;6.308;2022-09-24T19:28:14;11.00;99.90
52397;DHT22;38322;53.108;6.308;2022-09-24T19:30:43;11.00;99.90
52397;DHT22;38322;53.108;6.308;2022-09-24T19:33:11;11.10;99.90
52397;DHT22;38322;53.108;6.308;2022-09-24T19:35:41;11.00;99.90
52397;DHT22;38322;53.108;6.308;2022-09-24T19:38:12;11.00;99.90
52397;DHT22;38322;53.108;6.308;2022-09-24T19:40:41;11.00;99.90
52397;DHT22;38322;53.108;6.308;2022-09-24T19:43:06;11.00;99.90
52397;DHT22;38322;53.108;6.308;2022-09-24T19:45:32;11.00;99.90
52397;DHT22;38322;53.108;6.308;2022-09-24T19:48:00;10.90;99.90
52397;DHT22;38322;53.108;6.308;2022-09-24T19:50:26;10.90;99.90
52397;DHT22;38322;53.108;6.308;2022-09-24T19:52:52;10.90;99.90
52397;DHT22;38322;53.108;6.308;2022-09-24T19:55:20;10.90;99.90
52397;DHT22;38322;53.108;6.308;2022-09-24T19:57:46;10.90;99.90
52397;DHT22;38322;53.108;6.308;2022-09-24T20:00:12;10.90;99.90
